Time;durP1;ratioP1;P1;durP2;ratioP2;P2;SDS_P1;SDS_P2;PMS_P1;PMS_P2;Temp;Humidity;BMP_temperature;BMP_pressure;BME280_temperature;BME280_humidity;BME280_pressure;Samples;Min_cycle;Max_cycle;Signal;HPM_P1;HPM_P2
2021/01/29 00:02:06;;;;;;;13.93;6.50;;;;;;;-2.06;79.13;98255.00;5117196;28;20055;-46
2021/01/29 00:04:32;;;;;;;12.25;7.15;;;;;;;-2.05;78.98;98254.16;5118410;28;20043;-46
2021/01/29 00:06:58;;;;;;;21.75;10.95;;;;;;;-2.04;78.96;98248.19;5116829;28;20052;-46
2021/01/29 00:09:24;;;;;;;15.85;7.57;;;;;;;-2.07;78.92;98248.19;5117956;28;20052;-47
2021/01/29 00:11:49;;;;;;;15.23;7.45;;;;;;;-2.09;79.14;98260.13;5118201;28;20051;-46
2021/01/29 00:14:15;;;;;;;17.48;8.68;;;;;;;-2.07;79.19;98247.31;5118108;28;20452;-46
2021/01/29 00:16:41;;;;;;;15.52;7.88;;;;;;;-2.06;79.01;98246.47;5117848;28;20055;-46
2021/01/29 00:19:07;;;;;;;22.50;8.05;;;;;;;-2.11;78.94;98241.34;5118027;28;20394;-48
2021/01/29 00:21:33;;;;;;;18.50;9.40;;;;;;;-2.13;79.15;98248.16;5117722;28;20096;-48
2021/01/29 00:23:59;;;;;;;15.10;7.28;;;;;;;-2.10;79.00;98244.75;5117412;28;20039;-48
2021/01/29 00:26:24;;;;;;;18.35;8.88;;;;;;;-2.15;79.24;98249.88;5117554;28;20043;-48
2021/01/29 00:28:50;;;;;;;15.05;7.50;;;;;;;-2.10;79.05;98243.03;5117546;28;20043;-48
2021/01/29 00:31:16;;;;;;;15.13;7.90;;;;;;;-2.11;78.83;98254.16;5117596;28;20046;-46
2021/01/29 00:33:42;;;;;;;17.33;7.80;;;;;;;-2.17;79.07;98262.72;5117456;28;20051;-48
2021/01/29 00:36:08;;;;;;;13.15;7.55;;;;;;;-2.14;78.94;98255.03;5117430;28;20052;-48
2021/01/29 00:38:34;;;;;;;14.38;7.57;;;;;;;-2.21;79.05;98255.88;5117389;28;20051;-48
2021/01/29 00:40:59;;;;;;;18.45;8.07;;;;;;;-2.18;79.22;98267.81;5117402;28;20103;-48
2021/01/29 00:43:25;;;;;;;17.67;8.23;;;;;;;-2.17;78.82;98265.28;5117599;28;20079;-48
2021/01/29 00:45:51;;;;;;;18.80;8.02;;;;;;;-2.27;79.09;98262.69;5082834;28;20040;-48
2021/01/29 00:48:17;;;;;;;20.73;7.25;;;;;;;-2.20;78.93;98274.69;5116641;28;20044;-48
2021/01/29 00:50:43;;;;;;;13.40;7.25;;;;;;;-2.27;79.14;98276.38;5117165;28;20051;-48
2021/01/29 00:53:10;;;;;;;17.00;8.45;;;;;;;-2.26;78.96;98269.53;5117168;28;20040;-48
2021/01/29 00:55:36;;;;;;;15.63;8.27;;;;;;;-2.29;78.81;98267.81;5099667;28;20120;-48
2021/01/29 00:58:07;;;;;;;16.98;8.18;;;;;;;-2.35;79.04;98272.94;5116196;28;20054;-48
2021/01/29 01:00:52;;;;;;;18.52;8.48;;;;;;;-2.43;79.17;98283.19;5116978;28;20093;-48
2021/01/29 01:03:23;;;;;;;18.52;8.65;;;;;;;-2.44;79.18;98289.16;5117165;28;20043;-48
2021/01/29 01:05:49;;;;;;;20.48;9.23;;;;;;;-2.47;79.32;98284.03;5116277;28;20050;-48
2021/01/29 01:08:35;;;;;;;18.60;8.48;;;;;;;-2.47;79.14;98280.59;5117065;28;20048;-48
2021/01/29 01:11:36;;;;;;;19.23;8.18;;;;;;;-2.50;79.05;98278.91;5094952;28;20040;-48
2021/01/29 01:14:31;;;;;;;19.33;7.82;;;;;;;-2.52;79.17;98272.03;5115313;28;20077;-48
2021/01/29 01:17:32;;;;;;;20.92;9.00;;;;;;;-2.59;79.08;98278.88;5073997;28;20048;-48
2021/01/29 01:20:08;;;;;;;21.48;8.25;;;;;;;-2.54;79.25;98261.75;5110544;28;20113;-48
2021/01/29 01:22:34;;;;;;;14.23;7.63;;;;;;;-2.62;79.12;98264.31;5115885;28;20114;-48
2021/01/29 01:25:10;;;;;;;14.10;7.65;;;;;;;-2.58;79.10;98257.50;5084645;28;20356;-48
2021/01/29 01:27:36;;;;;;;17.60;7.40;;;;;;;-2.58;78.77;98257.50;5116934;28;20126;-48
2021/01/29 01:30:29;;;;;;;21.20;7.47;;;;;;;-2.58;79.02;98275.44;5116663;28;20347;-48
2021/01/29 01:32:55;;;;;;;18.08;7.90;;;;;;;-2.58;78.95;98270.31;5116922;28;20048;-48
2021/01/29 01:35:30;;;;;;;17.30;8.10;;;;;;;-2.58;79.10;98271.16;5116773;28;20039;-48
2021/01/29 01:37:56;;;;;;;17.35;7.70;;;;;;;-2.60;79.05;98272.88;5115999;28;20317;-48
2021/01/29 01:40:39;;;;;;;17.10;7.38;;;;;;;-2.60;79.35;98261.75;5116049;28;20059;-48
2021/01/29 01:43:08;;;;;;;15.15;7.75;;;;;;;-2.52;79.12;98264.34;5115941;28;20051;-48
2021/01/29 01:45:54;;;;;;;20.33;8.18;;;;;;;-2.52;78.89;98261.78;5115880;28;20040;-48
2021/01/29 01:48:32;;;;;;;16.00;7.13;;;;;;;-2.54;79.28;98263.47;5115893;28;20055;-48
2021/01/29 01:51:28;;;;;;;18.95;7.32;;;;;;;-2.49;78.89;98272.06;5101066;28;20074;-48
2021/01/29 01:53:55;;;;;;;15.98;7.65;;;;;;;-2.50;78.96;98267.75;5115877;28;20116;-48
2021/01/29 01:56:40;;;;;;;23.10;7.25;;;;;;;-2.48;79.01;98266.91;5083970;28;20048;-48
2021/01/29 01:59:27;;;;;;;22.52;7.75;;;;;;;-2.42;79.01;98259.25;5116500;28;20073;-48
2021/01/29 02:02:19;;;;;;;18.30;7.18;;;;;;;-2.40;78.67;98262.69;5070010;28;20047;-48
2021/01/29 02:05:11;;;;;;;13.98;7.60;;;;;;;-2.37;78.76;98267.81;5081158;28;20051;-48
2021/01/29 02:08:11;;;;;;;19.60;8.07;;;;;;;-2.40;78.69;98279.78;5104058;28;20108;-48
2021/01/29 02:11:08;;;;;;;18.67;8.43;;;;;;;-2.23;78.22;98272.97;5115843;28;20112;-48
2021/01/29 02:13:51;;;;;;;17.33;7.83;;;;;;;-2.24;78.01;98281.50;5086601;28;20047;-48
2021/01/29 02:17:15;;;;;;;19.00;7.38;;;;;;;-2.27;78.28;98281.50;5115226;28;20047;-48
2021/01/29 02:20:32;;;;;;;13.60;6.45;;;;;;;-2.31;78.27;98274.63;5066555;28;20411;-48
2021/01/29 02:23:12;;;;;;;16.58;6.95;;;;;;;-2.32;78.29;98257.53;5115639;28;20039;-48
2021/01/29 02:26:38;;;;;;;15.65;6.85;;;;;;;-2.24;77.96;98260.09;5096790;28;20387;-48
2021/01/29 02:29:43;;;;;;;16.05;7.13;;;;;;;-2.22;77.54;98268.69;5115962;28;20062;-48
2021/01/29 02:32:11;;;;;;;12.32;6.25;;;;;;;-2.37;77.69;98266.97;5119087;28;20138;-48
2021/01/29 02:35:23;;;;;;;13.68;6.00;;;;;;;-2.41;77.78;98263.50;5119365;28;20050;-48
2021/01/29 02:38:23;;;;;;;12.68;5.45;;;;;;;-2.49;77.80;98261.78;5097829;28;20044;-48
2021/01/29 02:41:06;;;;;;;15.25;5.90;;;;;;;-2.60;77.88;98260.06;5105017;28;20440;-48
2021/01/29 02:43:37;;;;;;;11.77;5.55;;;;;;;-2.54;78.04;98266.88;5119155;28;20352;-48
2021/01/29 02:46:47;;;;;;;15.07;5.47;;;;;;;-2.56;77.76;98271.19;5119516;28;20043;-48
2021/01/29 02:50:03;;;;;;;16.65;5.35;;;;;;;-2.63;78.22;98267.75;5119065;28;20151;-48
2021/01/29 02:52:53;;;;;;;;;;;;;;;-2.84;78.92;98278.75;5119550;28;20100;-48
2021/01/29 02:55:55;;;;;;;19.50;7.45;;;;;;;-2.84;79.01;98265.94;5085515;28;19920;-48
2021/01/29 02:59:08;;;;;;;11.27;5.22;;;;;;;-2.83;78.69;98274.47;5099198;28;20043;-48
2021/01/29 03:01:59;;;;;;;14.23;5.40;;;;;;;-2.86;78.88;98277.03;5118369;28;20051;-48
2021/01/29 03:05:00;;;;;;;12.05;5.43;;;;;;;-2.87;79.00;98273.63;5102099;28;20062;-48
2021/01/29 03:07:32;;;;;;;14.43;5.63;;;;;;;-2.93;79.16;98283.84;5103091;28;20043;-48
2021/01/29 03:10:34;;;;;;;12.02;5.82;;;;;;;-2.96;79.24;98270.16;5118461;28;20054;-48
2021/01/29 03:13:29;;;;;;;14.07;5.32;;;;;;;-3.02;79.24;98267.56;5106226;28;20108;-48
2021/01/29 03:16:19;;;;;;;11.40;4.88;;;;;;;-3.09;79.88;98267.56;5104314;28;20055;-48
2021/01/29 03:19:18;;;;;;;15.40;5.63;;;;;;;-3.05;79.82;98271.00;5104481;28;20063;-48
2021/01/29 03:22:09;;;;;;;9.80;4.88;;;;;;;-3.12;79.88;98271.78;5118493;28;20101;-48
2021/01/29 03:25:02;;;;;;;12.30;4.63;;;;;;;-3.12;79.66;98262.44;5089867;28;20047;-48
2021/01/29 03:27:48;;;;;;;11.00;4.60;;;;;;;-3.15;79.80;98272.66;5119138;28;20047;-48
2021/01/29 03:30:34;;;;;;;12.82;4.97;;;;;;;-3.16;79.79;98264.94;5118146;28;20451;-45
2021/01/29 03:33:18;;;;;;;17.15;6.25;;;;;;;-3.23;80.30;98268.34;5104081;28;20047;-46
2021/01/29 03:36:05;;;;;;;13.40;5.55;;;;;;;-3.25;80.44;98277.69;5103670;28;20394;-45
2021/01/29 03:39:12;;;;;;;11.85;5.38;;;;;;;-3.23;80.37;98274.31;5118759;28;20135;-45
2021/01/29 03:42:05;;;;;;;15.07;5.03;;;;;;;-3.20;80.21;98274.31;5117363;28;20058;-45
2021/01/29 03:44:53;;;;;;;11.98;6.05;;;;;;;-3.28;80.68;98263.19;5117958;28;20092;-45
2021/01/29 03:48:30;;;;;;;12.77;5.07;;;;;;;-3.27;80.58;98258.94;5103946;28;20070;-45
2021/01/29 03:51:45;;;;;;;19.27;6.78;;;;;;;-3.33;80.60;98270.84;5056428;28;20066;-46
2021/01/29 03:54:48;;;;;;;11.63;5.80;;;;;;;-3.44;80.95;98269.06;5118917;28;20093;-45
2021/01/29 03:57:51;;;;;;;12.53;6.30;;;;;;;-3.42;81.49;98267.38;5117619;28;20109;-45
2021/01/29 04:00:40;;;;;;;14.03;5.87;;;;;;;-3.39;81.15;98269.94;5117634;28;20062;-46
2021/01/29 04:03:34;;;;;;;15.55;7.20;;;;;;;-3.46;81.73;98263.06;5117701;28;20368;-45
2021/01/29 04:06:36;;;;;;;10.68;5.25;;;;;;;-3.46;82.06;98268.19;5084095;28;20108;-45
2021/01/29 04:09:38;;;;;;;11.60;5.40;;;;;;;-3.48;81.77;98263.06;5082840;28;20048;-45
2021/01/29 04:12:26;;;;;;;12.73;5.38;;;;;;;-3.44;81.89;98269.06;5103335;28;20447;-45
2021/01/29 04:15:33;;;;;;;11.73;6.03;;;;;;;-3.48;81.84;98270.72;5102811;28;20044;-45
2021/01/29 04:18:01;;;;;;;11.40;5.32;;;;;;;-3.53;82.26;98263.03;5115279;28;20044;-45
2021/01/29 04:20:47;;;;;;;15.90;6.18;;;;;;;-3.49;82.11;98256.22;5117234;28;20052;-45
2021/01/29 04:23:38;;;;;;;12.07;5.18;;;;;;;-3.50;81.92;98256.22;5117136;28;20043;-45
2021/01/29 04:26:07;;;;;;;15.32;6.22;;;;;;;-3.54;81.95;98263.03;5111890;28;20108;-45
2021/01/29 04:28:36;;;;;;;15.57;6.40;;;;;;;-3.56;82.35;98262.16;5100315;28;20089;-45
2021/01/29 04:31:03;;;;;;;13.00;5.13;;;;;;;-3.55;82.31;98258.75;5117010;28;20043;-45
2021/01/29 04:33:35;;;;;;;14.35;4.93;;;;;;;-3.57;82.46;98258.75;5116932;28;20130;-45
2021/01/29 04:36:01;;;;;;;11.88;5.32;;;;;;;-3.58;82.46;98258.72;5118598;28;20039;-45
2021/01/29 04:38:40;;;;;;;12.93;5.45;;;;;;;-3.61;82.73;98266.38;5116558;28;20075;-45
2021/01/29 04:41:26;;;;;;;10.95;5.88;;;;;;;-3.62;82.68;98262.13;5100080;28;20042;-45
2021/01/29 04:44:20;;;;;;;14.90;5.85;;;;;;;-3.66;83.13;98262.94;5116878;28;20043;-45
2021/01/29 04:47:07;;;;;;;13.73;6.03;;;;;;;-3.67;83.13;98274.00;5117515;28;20108;-45
2021/01/29 04:50:08;;;;;;;14.70;6.85;;;;;;;-3.65;82.72;98259.53;5117326;28;20402;-45
2021/01/29 04:53:00;;;;;;;13.75;6.35;;;;;;;-3.66;82.42;98278.31;5117352;28;20360;-45
2021/01/29 04:55:50;;;;;;;11.85;5.50;;;;;;;-3.60;82.53;98274.09;5117158;28;20467;-45
2021/01/29 04:58:28;;;;;;;12.35;5.22;;;;;;;-3.65;82.90;98267.22;5117489;28;20036;-45
2021/01/29 05:01:37;;;;;;;13.18;6.30;;;;;;;-3.76;83.04;98268.00;5101941;28;20425;-45
2021/01/29 05:04:53;;;;;;;13.45;5.10;;;;;;;-3.79;83.08;98256.88;5116974;28;20387;-46
2021/01/29 05:07:50;;;;;;;10.73;4.18;;;;;;;-3.80;83.42;98255.19;5117234;28;20059;-45
2021/01/29 05:11:25;;;;;;;11.90;4.25;;;;;;;-3.77;83.33;98250.06;5093825;28;20075;-45
2021/01/29 05:14:19;;;;;;;11.95;4.50;;;;;;;-3.81;83.53;98250.88;5117153;28;20116;-45
2021/01/29 05:17:04;;;;;;;10.43;4.40;;;;;;;-3.73;83.39;98249.25;5116069;28;20043;-45
2021/01/29 05:19:52;;;;;;;13.52;5.03;;;;;;;-3.79;83.42;98255.19;5117054;28;20047;-45
2021/01/29 05:22:41;;;;;;;12.68;5.00;;;;;;;-3.72;83.07;98253.53;5115997;28;20356;-45
2021/01/29 05:25:10;;;;;;;17.65;4.95;;;;;;;-3.77;83.23;98261.19;5116121;28;20118;-45
2021/01/29 05:27:44;;;;;;;8.70;4.45;;;;;;;-3.76;83.36;98249.22;5116959;28;20400;-45
2021/01/29 05:30:47;;;;;;;8.98;4.38;;;;;;;-3.71;83.39;98242.44;5115829;28;20574;-45
2021/01/29 05:33:24;;;;;;;11.40;4.47;;;;;;;-3.68;83.35;98236.47;5116927;28;20047;-45
2021/01/29 05:35:55;;;;;;;10.50;4.30;;;;;;;-3.68;83.12;98239.03;5116751;28;20093;-45
2021/01/29 05:38:42;;;;;;;13.95;5.13;;;;;;;-3.69;83.06;98229.66;5116582;28;20036;-45
2021/01/29 05:41:29;;;;;;;10.43;4.57;;;;;;;-3.65;83.34;98227.13;5116078;28;20062;-45
2021/01/29 05:44:03;;;;;;;9.63;5.13;;;;;;;-3.66;83.14;98235.66;5116823;28;20052;-45
2021/01/29 05:46:58;;;;;;;12.18;5.43;;;;;;;-3.57;83.12;98234.88;5115785;28;20044;-45
2021/01/29 05:49:43;;;;;;;29.27;10.70;;;;;;;-3.64;83.08;98226.28;5115651;28;20047;-45
2021/01/29 05:52:31;;;;;;;33.03;10.18;;;;;;;-3.63;83.64;98225.44;5115622;28;20058;-45
2021/01/29 05:55:19;;;;;;;15.43;6.35;;;;;;;-3.60;83.44;98225.44;5115993;28;20339;-45
2021/01/29 05:58:12;;;;;;;9.60;4.05;;;;;;;-3.59;83.31;98221.19;5116371;28;20044;-45
2021/01/29 06:01:05;;;;;;;12.27;5.15;;;;;;;-3.60;83.23;98229.72;5116459;28;20411;-46
2021/01/29 06:03:45;;;;;;;12.68;5.78;;;;;;;-3.63;82.92;98227.16;5116633;28;20035;-45
2021/01/29 06:06:22;;;;;;;12.90;4.65;;;;;;;-3.58;82.99;98231.41;5120540;28;20071;-45
2021/01/29 06:09:23;;;;;;;13.55;6.32;;;;;;;-3.61;82.83;98228.84;5120662;28;20066;-45
2021/01/29 06:12:02;;;;;;;36.67;12.75;;;;;;;-3.64;82.99;98235.66;5120605;28;20055;-45
2021/01/29 06:14:38;;;;;;;40.80;15.88;;;;;;;-3.68;83.53;98227.09;5119403;28;20047;-45
2021/01/29 06:17:32;;;;;;;27.02;10.85;;;;;;;-3.63;83.14;98237.38;5120726;28;20083;-45
2021/01/29 06:20:25;;;;;;;25.13;10.77;;;;;;;-3.51;82.92;98237.44;5120212;28;20040;-45
2021/01/29 06:23:21;;;;;;;20.20;10.07;;;;;;;-3.52;82.54;98238.28;5120079;28;20035;-45
2021/01/29 06:26:27;;;;;;;13.82;7.88;;;;;;;-3.49;82.71;98229.78;5120036;28;20039;-45
2021/01/29 06:29:29;;;;;;;12.70;6.60;;;;;;;-3.46;82.71;98224.69;5119413;28;20062;-45
2021/01/29 06:32:25;;;;;;;12.18;6.40;;;;;;;-3.36;82.54;98221.31;5088218;28;20048;-47
2021/01/29 06:35:01;;;;;;;14.45;5.80;;;;;;;-3.33;82.27;98224.75;5119457;28;20051;-46
2021/01/29 06:38:04;;;;;;;21.85;7.85;;;;;;;-3.33;82.17;98224.75;5119340;28;20051;-47
2021/01/29 06:40:30;;;;;;;25.45;7.90;;;;;;;-3.27;82.28;98229.03;5120383;28;20050;-47
2021/01/29 06:43:02;;;;;;;16.25;7.97;;;;;;;-3.20;81.97;98232.50;5118877;28;20040;-47
2021/01/29 06:45:33;;;;;;;13.38;6.78;;;;;;;-3.09;81.89;98223.13;5119079;28;20108;-47
2021/01/29 06:48:05;;;;;;;8.60;4.82;;;;;;;-3.06;81.73;98231.69;5119610;28;20096;-47
2021/01/29 06:51:15;;;;;;;11.15;6.22;;;;;;;-3.06;81.52;98220.59;5119892;28;20066;-47
2021/01/29 06:54:02;;;;;;;22.60;10.77;;;;;;;-3.07;81.93;98217.19;5104691;28;20044;-47
2021/01/29 06:56:46;;;;;;;25.27;9.85;;;;;;;-3.04;81.85;98218.06;5119498;28;20047;-47
2021/01/29 06:59:15;;;;;;;27.13;12.02;;;;;;;-2.96;81.96;98209.53;5118843;28;20375;-47
2021/01/29 07:01:59;;;;;;;37.28;14.02;;;;;;;-2.84;81.27;98226.66;5118389;28;20066;-47
2021/01/29 07:04:43;;;;;;;45.33;19.70;;;;;;;-2.83;81.27;98221.56;5118459;28;20472;-47
2021/01/29 07:07:30;;;;;;;40.08;14.77;;;;;;;-2.74;80.85;98223.25;5119511;28;20051;-47
2021/01/29 07:09:56;;;;;;;50.00;18.25;;;;;;;-2.77;81.29;98218.13;5119786;28;20044;-47
2021/01/29 07:12:41;;;;;;;83.30;26.15;;;;;;;-2.70;80.97;98211.31;5119443;27;20052;-47
2021/01/29 07:15:16;;;;;;;139.10;44.63;;;;;;;-2.75;81.19;98206.19;5119078;28;20104;-47
2021/01/29 07:18:00;;;;;;;62.92;21.08;;;;;;;-2.74;80.48;98195.06;5118579;28;20051;-47
2021/01/29 07:21:02;;;;;;;43.95;17.92;;;;;;;-2.55;79.82;98206.22;5119343;28;20062;-47
2021/01/29 07:23:40;;;;;;;78.30;33.83;;;;;;;-2.58;80.40;98191.69;5119783;28;20057;-47
2021/01/29 07:26:25;;;;;;;30.20;15.07;;;;;;;-2.47;80.34;98185.72;5118306;28;20063;-47
2021/01/29 07:28:59;;;;;;;473.50;161.25;;;;;;;-2.41;79.92;98181.44;5119107;28;20051;-47
2021/01/29 07:31:33;;;;;;;537.42;204.93;;;;;;;-2.30;79.85;98178.91;5118013;28;20079;-47
2021/01/29 07:34:21;;;;;;;280.65;99.85;;;;;;;-2.31;79.44;98174.59;5119038;28;20394;-47
2021/01/29 07:37:25;;;;;;;487.92;190.10;;;;;;;-2.27;78.98;98167.78;5117917;28;20060;-47
2021/01/29 07:40:21;;;;;;;179.82;78.43;;;;;;;-2.14;78.52;98159.25;5087574;28;20112;-47
2021/01/29 07:42:51;;;;;;;130.73;52.60;;;;;;;-2.12;78.09;98160.06;5118910;28;20044;-47
2021/01/29 07:45:20;;;;;;;51.90;36.40;;;;;;;-2.11;76.67;98154.09;5117864;28;20047;-47
2021/01/29 07:48:03;;;;;;;50.08;35.78;;;;;;;-2.14;77.29;98160.09;5118532;28;20035;-47
2021/01/29 07:50:38;;;;;;;58.30;35.50;;;;;;;-2.12;77.43;98166.06;5117916;28;20135;-47
2021/01/29 07:53:20;;;;;;;462.25;137.07;;;;;;;-2.04;77.38;98152.41;5101626;28;20047;-47
2021/01/29 07:56:12;;;;;;;127.65;86.60;;;;;;;-1.99;76.96;98153.22;5117817;28;20043;-47
2021/01/29 07:59:23;;;;;;;97.43;43.15;;;;;;;-1.91;75.84;98152.38;5117816;28;20051;-47
2021/01/29 08:02:14;;;;;;;109.20;45.95;;;;;;;-2.14;75.27;98148.97;5117998;28;20064;-47
2021/01/29 08:04:52;;;;;;;191.23;57.40;;;;;;;-2.04;75.38;98157.53;5117487;28;20074;-47
2021/01/29 08:07:30;;;;;;;504.73;262.48;;;;;;;-2.13;75.11;98155.81;5117461;28;20142;-47
2021/01/29 08:09:58;;;;;;;371.58;130.88;;;;;;;-1.99;75.67;98156.63;5117169;28;20048;-47
2021/01/29 08:12:25;;;;;;;342.05;101.43;;;;;;;-1.85;75.31;98150.63;5117455;28;20115;-47
2021/01/29 08:15:03;;;;;;;522.88;155.15;;;;;;;-1.93;75.54;98146.38;5117083;28;20032;-47
2021/01/29 08:18:06;;;;;;;475.63;130.50;;;;;;;-1.88;75.86;98136.97;5100894;28;20096;-47
2021/01/29 08:20:57;;;;;;;130.40;42.30;;;;;;;-1.69;75.69;98134.34;5117876;28;20444;-47
2021/01/29 08:23:35;;;;;;;780.05;260.25;;;;;;;-1.72;75.36;98139.50;5118362;28;20089;-47
2021/01/29 08:26:28;;;;;;;487.20;140.88;;;;;;;-1.76;74.13;98137.78;5117644;28;20046;-47
2021/01/29 08:28:54;;;;;;;;;;;;;;;-1.94;74.74;98139.53;5118041;28;20062;-56
2021/01/29 08:31:48;;;;;;;403.63;125.20;;;;;;;-1.77;74.88;98141.22;5117614;28;20007;-56
2021/01/29 08:34:52;;;;;;;333.23;99.85;;;;;;;-1.64;75.21;98140.31;5117166;28;20043;-56
2021/01/29 08:37:37;;;;;;;355.30;87.50;;;;;;;-1.58;75.06;98139.47;5117745;27;20048;-56
2021/01/29 08:40:22;;;;;;;135.25;33.53;;;;;;;-1.57;74.66;98136.03;5116449;28;20047;-56
2021/01/29 08:43:00;;;;;;;64.53;20.05;;;;;;;-1.33;74.16;98133.38;5116590;28;20044;-56
2021/01/29 08:45:44;;;;;;;21.02;8.23;;;;;;;-1.32;74.51;98129.94;5115598;28;20040;-56
2021/01/29 08:48:21;;;;;;;39.80;12.43;;;;;;;-1.25;74.09;98133.34;5115818;28;20047;-56
2021/01/29 08:51:24;;;;;;;37.85;14.40;;;;;;;-1.14;73.82;98121.28;5115514;28;20035;-56
2021/01/29 08:53:49;;;;;;;45.67;17.35;;;;;;;-1.03;73.04;98116.09;5115677;28;20130;-55
2021/01/29 08:56:43;;;;;;;273.92;108.40;;;;;;;-1.06;72.78;98111.81;5115597;28;20050;-55
2021/01/29 08:59:15;;;;;;;77.80;31.95;;;;;;;-0.86;73.12;98116.84;5114139;28;20465;-53
2021/01/29 09:02:00;;;;;;;88.20;38.23;;;;;;;-0.88;72.18;98107.44;5100092;28;20084;-56
2021/01/29 09:04:47;;;;;;;65.38;25.95;;;;;;;-0.83;72.37;98111.69;5117355;28;20071;-55
2021/01/29 09:07:17;;;;;;;97.50;32.70;;;;;;;-0.77;71.83;98108.22;5117193;28;20058;-55
2021/01/29 09:09:44;;;;;;;92.15;32.22;;;;;;;-0.72;71.36;98109.03;5116321;28;20051;-56
2021/01/29 09:12:24;;;;;;;135.45;44.60;;;;;;;-0.60;71.59;98102.97;5116199;28;20047;-56
2021/01/29 09:15:03;;;;;;;50.67;19.77;;;;;;;-0.60;70.87;98114.09;5100962;28;20047;-56
2021/01/29 09:17:46;;;;;;;84.65;27.80;;;;;;;-0.69;70.19;98090.16;5083810;28;20057;-53
2021/01/29 09:20:12;;;;;;;27.55;11.80;;;;;;;-0.86;70.51;98085.16;5099594;28;20139;-56
2021/01/29 09:22:44;;;;;;;21.30;10.02;;;;;;;-0.73;71.25;98084.19;5099037;28;20119;-55
2021/01/29 09:25:20;;;;;;;35.22;13.07;;;;;;;-0.45;71.11;98081.41;5099754;28;20052;-53
2021/01/29 09:28:09;;;;;;;21.40;8.52;;;;;;;-0.32;69.57;98088.16;5115833;28;20405;-55
2021/01/29 09:31:07;;;;;;;51.03;19.73;;;;;;;-0.48;68.44;98095.16;5116100;28;20047;-53
2021/01/29 09:33:47;;;;;;;565.55;247.02;;;;;;;-0.25;69.39;98095.81;5115741;28;20036;-53
2021/01/29 09:36:20;;;;;;;686.42;352.30;;;;;;;-0.32;69.11;98090.75;5100430;28;20054;-53
2021/01/29 09:38:47;;;;;;;150.82;94.68;;;;;;;-0.61;68.78;98083.25;5114991;28;20443;-54
2021/01/29 09:41:21;;;;;;;85.95;59.30;;;;;;;-0.23;69.40;98077.75;5116741;28;20059;-53
2021/01/29 09:44:02;;;;;;;67.75;30.90;;;;;;;-0.08;69.45;98081.94;5116511;28;20481;-53
2021/01/29 09:46:38;;;;;;;48.92;16.70;;;;;;;-0.33;67.99;98081.28;5116680;28;20058;-54
2021/01/29 09:49:07;;;;;;;30.88;11.45;;;;;;;-0.09;69.05;98073.34;5099099;28;20048;-53
2021/01/29 09:51:40;;;;;;;12.43;6.65;;;;;;;0.58;68.75;98064.00;5115784;28;20051;-53
2021/01/29 09:54:18;;;;;;;18.70;10.10;;;;;;;1.05;67.25;98064.25;5115887;28;20121;-53
2021/01/29 09:56:45;;;;;;;9.52;5.43;;;;;;;1.47;67.15;98061.88;5115845;28;20123;-53
2021/01/29 09:59:21;;;;;;;21.10;9.18;;;;;;;1.35;64.17;98056.03;5115812;28;20075;-56
2021/01/29 10:01:55;;;;;;;19.40;10.63;;;;;;;1.34;65.01;98064.66;5116118;28;20360;-47
2021/01/29 10:04:29;;;;;;;10.30;5.65;;;;;;;1.59;65.00;98064.22;5115811;28;20040;-45
2021/01/29 10:06:56;;;;;;;38.92;21.55;;;;;;;1.53;64.32;98064.38;5099493;28;20047;-47
2021/01/29 10:09:34;;;;;;;19.17;10.85;;;;;;;1.55;64.28;98067.75;5115671;28;20051;-47
2021/01/29 10:12:04;;;;;;;21.77;7.90;;;;;;;1.45;64.80;98064.47;5098937;28;20044;-45
2021/01/29 10:15:01;;;;;;;13.15;6.45;;;;;;;1.83;64.83;98069.00;5116201;28;20078;-47
2021/01/29 10:17:37;;;;;;;19.63;6.65;;;;;;;1.69;63.12;98062.34;5111441;28;20082;-45
2021/01/29 10:20:08;;;;;;;37.33;11.02;;;;;;;1.82;63.69;98056.97;5099529;28;20066;-47
2021/01/29 10:22:57;;;;;;;59.03;26.48;;;;;;;1.70;62.21;98058.91;5098764;28;20094;-47
2021/01/29 10:25:42;;;;;;;43.78;34.42;;;;;;;1.37;63.45;98045.69;5115171;28;20071;-45
2021/01/29 10:28:30;;;;;;;25.50;11.93;;;;;;;1.53;63.39;98051.47;5115593;28;20207;-47
2021/01/29 10:31:02;;;;;;;16.58;7.60;;;;;;;1.66;63.54;98052.06;5116404;28;20135;-47
2021/01/29 10:33:30;;;;;;;16.85;5.88;;;;;;;1.59;63.24;98046.16;5098479;28;20056;-47
2021/01/29 10:36:22;;;;;;;27.10;10.57;;;;;;;1.41;63.82;98044.75;5098740;28;20054;-47
2021/01/29 10:38:56;;;;;;;14.30;5.07;;;;;;;1.38;63.52;98045.66;5115548;28;20134;-46
2021/01/29 10:41:35;;;;;;;24.55;11.18;;;;;;;1.23;63.92;98034.72;5098974;28;20048;-47
2021/01/29 10:44:13;;;;;;;21.75;10.90;;;;;;;1.29;64.14;98034.63;5115167;28;20386;-46
2021/01/29 10:46:50;;;;;;;25.25;10.88;;;;;;;1.10;64.02;98032.31;5115922;28;20048;-47
2021/01/29 10:49:55;;;;;;;22.95;11.98;;;;;;;0.89;64.07;98030.09;5116258;28;20055;-46
2021/01/29 10:52:41;;;;;;;21.58;11.70;;;;;;;0.86;64.71;98009.50;5119591;28;20118;-46
2021/01/29 10:55:23;;;;;;;21.17;7.82;;;;;;;0.93;64.93;98003.38;5118905;28;20039;-47
2021/01/29 10:57:53;;;;;;;33.45;14.20;;;;;;;1.00;64.98;97994.66;5119817;28;20105;-47
2021/01/29 11:00:20;;;;;;;54.50;18.33;;;;;;;1.34;64.93;97992.41;5118739;28;20085;-47
2021/01/29 11:02:48;;;;;;;44.10;13.93;;;;;;;1.44;64.43;97994.84;5118536;28;20138;-47
2021/01/29 11:05:24;;;;;;;35.45;14.50;;;;;;;1.51;63.88;97996.44;5101738;28;20092;-47
2021/01/29 11:07:51;;;;;;;53.53;23.02;;;;;;;1.51;64.24;97991.28;5101444;28;20048;-47
2021/01/29 11:10:20;;;;;;;40.45;16.88;;;;;;;1.59;64.08;97981.66;5118922;28;20036;-47
2021/01/29 11:12:53;;;;;;;31.52;14.40;;;;;;;1.62;63.79;97979.84;5118704;28;20146;-47
2021/01/29 11:15:24;;;;;;;74.55;24.38;;;;;;;1.62;63.77;97979.84;5119423;28;20052;-47
2021/01/29 11:17:57;;;;;;;80.05;35.65;;;;;;;1.66;63.86;97983.25;5118545;28;20121;-47
2021/01/29 11:20:31;;;;;;;35.50;16.55;;;;;;;1.73;63.75;97982.28;5118187;28;20455;-47
2021/01/29 11:23:19;;;;;;;21.38;9.85;;;;;;;1.79;63.28;97986.47;5101571;28;20054;-47
2021/01/29 11:25:47;;;;;;;24.33;10.73;;;;;;;1.94;63.33;97990.47;5103176;28;20040;-47
2021/01/29 11:28:43;;;;;;;20.85;9.70;;;;;;;2.06;62.90;97978.19;5118049;28;20101;-47
2021/01/29 11:31:09;;;;;;;24.48;9.68;;;;;;;2.09;62.64;97974.69;5116058;28;20059;-48
2021/01/29 11:33:36;;;;;;;29.27;12.65;;;;;;;2.22;62.14;97970.13;5119064;28;20440;-47
2021/01/29 11:36:10;;;;;;;15.23;7.13;;;;;;;2.27;61.78;97976.88;5101152;28;20122;-48
2021/01/29 11:39:32;;;;;;;13.80;6.85;;;;;;;2.24;61.50;97976.97;5118208;28;20089;-48
2021/01/29 11:42:15;;;;;;;14.13;6.18;;;;;;;2.41;62.09;97968.84;5073858;27;20067;-48
2021/01/29 11:44:48;;;;;;;9.15;5.18;;;;;;;2.50;61.26;97967.78;5103001;28;20428;-48
2021/01/29 11:47:23;;;;;;;14.75;6.20;;;;;;;2.62;61.65;97962.34;5117934;28;20043;-48
2021/01/29 11:50:18;;;;;;;16.25;7.05;;;;;;;2.71;60.17;97969.91;5117736;28;20359;-48
2021/01/29 11:52:57;;;;;;;35.55;13.88;;;;;;;2.90;60.63;97961.75;5100200;28;20051;-47
2021/01/29 11:55:25;;;;;;;52.25;21.42;;;;;;;3.03;60.71;97957.97;5101175;28;20448;-48
2021/01/29 11:58:10;;;;;;;19.67;8.20;;;;;;;3.10;59.33;97946.59;5100574;28;20058;-47
2021/01/29 12:00:42;;;;;;;35.25;16.55;;;;;;;3.28;59.07;97953.03;5101131;28;20389;-48
2021/01/29 12:03:17;;;;;;;16.70;7.38;;;;;;;3.42;57.69;97942.34;5117505;28;20100;-47
2021/01/29 12:05:52;;;;;;;18.98;7.95;;;;;;;3.46;58.32;97942.22;5118397;28;20048;-58
2021/01/29 12:08:29;;;;;;;15.73;6.55;;;;;;;3.46;58.30;97931.00;5117596;28;20052;-58
2021/01/29 12:11:19;;;;;;;22.48;8.70;;;;;;;3.55;58.22;97929.94;5117504;28;20080;-58
2021/01/29 12:13:47;;;;;;;18.23;8.10;;;;;;;3.51;57.97;97926.56;5117980;28;20052;-58
2021/01/29 12:16:22;;;;;;;19.42;9.20;;;;;;;3.52;57.80;97923.09;5118224;28;20126;-58
2021/01/29 12:18:50;;;;;;;29.08;10.00;;;;;;;3.58;58.46;97924.66;5117312;28;20139;-58
2021/01/29 12:21:22;;;;;;;25.73;12.02;;;;;;;3.74;58.19;97918.19;5117284;28;20074;-58
2021/01/29 12:23:51;;;;;;;21.35;11.35;;;;;;;3.74;57.51;97907.81;5118099;28;20352;-59
2021/01/29 12:26:21;;;;;;;15.05;7.53;;;;;;;3.78;57.76;97906.00;5116801;28;20039;-59
2021/01/29 12:28:50;;;;;;;16.98;8.57;;;;;;;3.85;57.67;97904.94;5116788;28;20044;-59
2021/01/29 12:31:45;;;;;;;38.22;13.02;;;;;;;3.94;57.62;97891.72;5117930;28;20043;-59
2021/01/29 12:34:36;;;;;;;21.27;10.73;;;;;;;3.85;56.37;97889.38;5088639;28;20360;-59
2021/01/29 12:37:07;;;;;;;19.33;9.88;;;;;;;3.97;57.02;97886.47;5118113;28;20043;-59